createdAt,value
2023-06-17T00:01:35.423Z,47.35
2023-06-17T00:04:04.001Z,47.36
2023-06-17T00:06:30.893Z,47.39
2023-06-17T00:08:58.623Z,47.53
2023-06-17T00:11:25.455Z,47.29
2023-06-17T00:13:53.313Z,47.43
2023-06-17T00:16:22.102Z,47.40
2023-06-17T00:18:53.036Z,47.53
2023-06-17T00:21:20.549Z,47.37
2023-06-17T00:23:47.387Z,47.58
2023-06-17T00:26:14.233Z,47.70
2023-06-17T00:28:41.013Z,47.44
2023-06-17T00:31:07.752Z,47.60
2023-06-17T00:33:34.528Z,47.50
2023-06-17T00:36:01.348Z,47.70
2023-06-17T00:38:28.151Z,47.57
2023-06-17T00:40:55.098Z,47.59
2023-06-17T00:43:21.874Z,47.69
2023-06-17T00:45:48.717Z,47.70
2023-06-17T00:48:15.952Z,47.63
2023-06-17T00:50:45.332Z,48.00
2023-06-17T00:53:12.406Z,47.93
2023-06-17T00:55:40.670Z,47.98
2023-06-17T00:58:07.596Z,48.00
2023-06-17T01:00:34.435Z,48.26
2023-06-17T01:03:01.533Z,48.27
2023-06-17T01:05:28.788Z,48.29
2023-06-17T01:08:14.128Z,48.64
2023-06-17T01:10:44.006Z,48.51
2023-06-17T01:13:13.324Z,48.58
2023-06-17T01:15:40.934Z,48.39
2023-06-17T01:18:08.972Z,48.72
2023-06-17T01:20:37.365Z,48.76
2023-06-17T01:23:06.678Z,48.61
2023-06-17T01:25:35.824Z,48.56
2023-06-17T01:28:20.882Z,48.77
2023-06-17T01:30:49.346Z,48.77
2023-06-17T01:33:16.800Z,48.79
2023-06-17T01:35:56.820Z,48.79
2023-06-17T01:38:33.634Z,48.66
2023-06-17T01:41:09.794Z,48.64
2023-06-17T01:43:37.802Z,48.63
2023-06-17T01:46:07.021Z,48.87
2023-06-17T01:48:34.037Z,48.83
2023-06-17T01:51:00.888Z,49.06
2023-06-17T01:53:27.901Z,49.03
2023-06-17T01:55:54.740Z,49.20
2023-06-17T01:58:21.593Z,49.19
2023-06-17T02:00:48.572Z,49.31
2023-06-17T02:03:17.253Z,49.32
2023-06-17T02:05:44.592Z,49.26
2023-06-17T02:08:12.818Z,49.30
2023-06-17T02:10:39.636Z,49.53
2023-06-17T02:13:06.482Z,49.55
2023-06-17T02:15:33.355Z,49.60
2023-06-17T02:18:00.417Z,49.54
2023-06-17T02:20:27.987Z,49.57
2023-06-17T02:22:54.793Z,49.67
2023-06-17T02:25:21.593Z,49.77
2023-06-17T02:27:49.711Z,49.67
2023-06-17T02:30:16.570Z,49.99
2023-06-17T02:32:43.415Z,49.87
2023-06-17T02:35:11.632Z,49.92
2023-06-17T02:37:39.072Z,49.87
2023-06-17T02:40:10.367Z,49.97
2023-06-17T02:42:37.835Z,49.96
2023-06-17T02:45:05.751Z,50.12
2023-06-17T02:47:32.647Z,50.13
2023-06-17T02:49:59.783Z,50.18
2023-06-17T02:52:26.608Z,50.20
2023-06-17T02:54:53.443Z,50.19
2023-06-17T02:57:20.301Z,50.20
2023-06-17T02:59:47.645Z,50.18
2023-06-17T03:02:14.530Z,50.39
2023-06-17T03:04:42.196Z,50.35
2023-06-17T03:07:08.962Z,50.49
2023-06-17T03:09:35.769Z,50.57
2023-06-17T03:12:04.266Z,50.78
2023-06-17T03:14:31.361Z,50.67
2023-06-17T03:17:02.336Z,50.87
2023-06-17T03:19:29.390Z,50.84
2023-06-17T03:21:57.109Z,51.03
2023-06-17T03:24:24.549Z,50.83
2023-06-17T03:26:52.683Z,51.12
2023-06-17T03:29:19.564Z,50.83
2023-06-17T03:31:46.503Z,50.76
2023-06-17T03:34:13.288Z,50.77
2023-06-17T03:36:41.150Z,50.85
2023-06-17T03:39:08.037Z,50.77
2023-06-17T03:41:34.770Z,50.67
2023-06-17T03:44:01.789Z,50.75
2023-06-17T03:46:28.590Z,50.76
2023-06-17T03:48:55.425Z,50.61
2023-06-17T03:51:22.296Z,50.60
2023-06-17T03:53:49.060Z,50.55
2023-06-17T03:56:15.921Z,50.59
2023-06-17T03:58:42.840Z,50.50
2023-06-17T04:01:13.894Z,50.35
2023-06-17T04:03:41.571Z,50.15
2023-06-17T04:06:09.393Z,49.96
2023-06-17T04:08:38.488Z,49.82
2023-06-17T04:11:06.178Z,49.72
2023-06-17T04:13:32.990Z,49.68
2023-06-17T04:15:59.801Z,49.54
2023-06-17T04:18:28.449Z,49.48
2023-06-17T04:20:57.627Z,49.35
2023-06-17T04:23:25.664Z,49.20
2023-06-17T04:25:52.685Z,49.23
2023-06-17T04:28:20.161Z,49.13
2023-06-17T04:30:47.386Z,49.09
2023-06-17T04:33:15.734Z,48.64
2023-06-17T04:35:43.657Z,48.38
2023-06-17T04:38:11.805Z,48.17
2023-06-17T04:40:39.043Z,47.94
2023-06-17T04:43:05.894Z,47.71
2023-06-17T04:45:33.175Z,47.56
2023-06-17T04:48:00.075Z,47.45
2023-06-17T04:50:26.951Z,47.33
2023-06-17T04:52:53.768Z,47.23
2023-06-17T04:55:22.455Z,47.17
2023-06-17T04:57:49.313Z,47.03
2023-06-17T05:00:19.955Z,46.91
2023-06-17T05:02:48.359Z,46.84
2023-06-17T05:05:15.167Z,46.81
2023-06-17T05:07:41.980Z,46.79
2023-06-17T05:10:09.169Z,46.84
2023-06-17T05:12:36.576Z,46.75
2023-06-17T05:15:03.591Z,46.75
2023-06-17T05:17:30.409Z,46.69
2023-06-17T05:19:57.424Z,46.63
2023-06-17T05:22:24.244Z,46.60
2023-06-17T05:24:51.330Z,46.55
2023-06-17T05:27:18.289Z,46.53
2023-06-17T05:29:45.224Z,46.49
2023-06-17T05:32:12.043Z,46.47
2023-06-17T05:34:38.844Z,46.50
2023-06-17T05:37:05.794Z,46.55
2023-06-17T05:39:32.614Z,46.55
2023-06-17T05:41:59.436Z,46.57
2023-06-17T05:44:26.250Z,46.58
2023-06-17T05:46:53.025Z,46.60
2023-06-17T05:49:19.789Z,46.59
2023-06-17T05:51:46.532Z,46.55
2023-06-17T05:54:13.376Z,46.57
2023-06-17T05:56:40.171Z,46.56
2023-06-17T05:59:07.265Z,46.59
2023-06-17T06:01:34.182Z,46.62
2023-06-17T06:04:01.177Z,46.69
2023-06-17T06:06:27.982Z,46.70
2023-06-17T06:08:54.848Z,46.84
2023-06-17T06:11:21.840Z,46.75
2023-06-17T06:13:48.610Z,46.77
2023-06-17T06:16:15.478Z,46.67
2023-06-17T06:18:42.271Z,46.67
2023-06-17T06:21:09.037Z,46.56
2023-06-17T06:23:37.118Z,46.46
2023-06-17T06:26:04.156Z,46.40
2023-06-17T06:28:31.042Z,46.54
2023-06-17T06:30:57.923Z,46.54
2023-06-17T06:33:24.768Z,46.60
2023-06-17T06:35:51.585Z,46.51
2023-06-17T06:38:18.394Z,46.49
2023-06-17T06:40:45.182Z,46.43
2023-06-17T06:43:11.946Z,46.41
2023-06-17T06:45:38.879Z,46.62
2023-06-17T06:48:06.053Z,46.60
2023-06-17T06:50:34.395Z,46.60
2023-06-17T06:53:01.353Z,46.59
2023-06-17T06:55:29.725Z,46.78
2023-06-17T06:57:56.671Z,46.64
2023-06-17T07:00:23.781Z,46.52
2023-06-17T07:02:50.792Z,46.52
2023-06-17T07:05:17.872Z,46.60
2023-06-17T07:07:45.623Z,46.63
2023-06-17T07:10:12.517Z,46.73
2023-06-17T07:12:39.360Z,46.80
2023-06-17T07:15:06.873Z,46.88
2023-06-17T07:17:33.915Z,46.79
2023-06-17T07:20:00.888Z,46.85
2023-06-17T07:22:27.682Z,46.93
2023-06-17T07:24:54.464Z,47.05
2023-06-17T07:27:21.272Z,47.17
2023-06-17T07:29:48.086Z,47.28
2023-06-17T07:32:14.896Z,47.23
2023-06-17T07:34:41.709Z,47.23
2023-06-17T07:37:08.508Z,47.31
2023-06-17T07:39:35.257Z,47.16
2023-06-17T07:42:02.302Z,47.18
2023-06-17T07:44:29.086Z,47.10
2023-06-17T07:46:56.652Z,46.84
2023-06-17T07:49:23.567Z,46.71
2023-06-17T07:51:50.659Z,46.66
2023-06-17T07:54:17.953Z,46.65
2023-06-17T07:56:44.790Z,46.71
2023-06-17T07:59:11.528Z,46.64
2023-06-17T08:01:38.448Z,46.54
2023-06-17T08:04:05.477Z,46.41
2023-06-17T08:06:32.339Z,46.46
2023-06-17T08:08:59.592Z,46.29
2023-06-17T08:11:26.382Z,46.25
2023-06-17T08:13:53.418Z,46.23
2023-06-17T08:16:20.244Z,46.20
2023-06-17T08:18:47.108Z,46.02
2023-06-17T08:21:13.982Z,45.99
2023-06-17T08:23:41.690Z,45.96
2023-06-17T08:26:08.636Z,46.00
2023-06-17T08:28:35.601Z,45.92
2023-06-17T08:31:03.236Z,45.80
2023-06-17T08:33:30.878Z,45.57
2023-06-17T08:35:57.718Z,45.39
2023-06-17T08:38:24.557Z,45.38
2023-06-17T08:40:51.577Z,45.20
2023-06-17T08:43:21.327Z,45.08
2023-06-17T08:45:49.720Z,45.10
2023-06-17T08:48:17.321Z,44.96
2023-06-17T08:50:46.321Z,44.82
2023-06-17T08:53:16.170Z,44.74
2023-06-17T08:55:43.891Z,44.76
2023-06-17T08:58:11.595Z,44.77
2023-06-17T09:00:38.726Z,44.79
2023-06-17T09:03:09.392Z,44.84
2023-06-17T09:05:36.824Z,44.86
2023-06-17T09:08:04.207Z,44.91
2023-06-17T09:10:42.608Z,44.94
2023-06-17T09:13:09.835Z,45.01
2023-06-17T09:15:41.669Z,45.09
2023-06-17T09:18:09.258Z,45.16
2023-06-17T09:20:36.267Z,45.20
2023-06-17T09:23:03.366Z,45.22
2023-06-17T09:25:35.083Z,45.28
2023-06-17T09:28:16.247Z,45.17
2023-06-17T09:30:45.032Z,45.13
2023-06-17T09:33:20.171Z,45.07
2023-06-17T09:35:48.433Z,44.91
2023-06-17T09:38:20.967Z,44.70
2023-06-17T09:40:49.917Z,44.48
2023-06-17T09:43:27.479Z,44.30
2023-06-17T09:45:58.262Z,44.11
2023-06-17T09:48:26.192Z,44.00
2023-06-17T09:50:57.170Z,43.92
2023-06-17T09:53:27.316Z,43.79
2023-06-17T09:55:59.814Z,43.68
2023-06-17T09:58:32.222Z,43.49
2023-06-17T10:01:07.762Z,43.32
2023-06-17T10:03:36.376Z,43.35
2023-06-17T10:06:13.090Z,43.19
2023-06-17T10:08:52.059Z,43.04
2023-06-17T10:11:20.702Z,42.93
2023-06-17T10:14:11.506Z,42.86
2023-06-17T10:16:45.061Z,42.55
2023-06-17T10:19:14.729Z,42.53
2023-06-17T10:21:45.434Z,42.48
2023-06-17T10:24:12.943Z,42.53
2023-06-17T10:26:40.241Z,42.61
2023-06-17T10:29:08.415Z,42.60
2023-06-17T10:31:43.861Z,42.57
2023-06-17T10:34:16.171Z,42.68
2023-06-17T10:36:43.134Z,42.69
2023-06-17T10:39:11.885Z,42.80
2023-06-17T10:41:41.462Z,42.86
2023-06-17T10:44:36.504Z,43.00
2023-06-17T10:47:15.477Z,43.19
2023-06-17T10:49:47.846Z,43.35
2023-06-17T10:52:15.762Z,43.33
2023-06-17T10:54:50.506Z,43.14
2023-06-17T10:57:17.380Z,43.07
2023-06-17T10:59:44.152Z,42.89
2023-06-17T11:02:11.232Z,42.72
2023-06-17T11:04:42.309Z,42.35
2023-06-17T11:07:10.231Z,42.02
2023-06-17T11:09:37.555Z,41.92
2023-06-17T11:12:05.354Z,41.99
2023-06-17T11:14:33.906Z,42.01
2023-06-17T11:17:00.959Z,41.99
2023-06-17T11:19:27.912Z,41.94
2023-06-17T11:21:58.748Z,41.73
2023-06-17T11:24:26.862Z,41.54
2023-06-17T11:26:55.429Z,41.31
2023-06-17T11:29:22.330Z,41.19
2023-06-17T11:31:49.134Z,40.85
2023-06-17T11:34:16.130Z,40.88
2023-06-17T11:36:42.980Z,41.02
2023-06-17T11:39:13.148Z,41.12
2023-06-17T11:41:40.429Z,41.28
2023-06-17T11:44:07.954Z,41.38
2023-06-17T11:46:38.582Z,41.33
2023-06-17T11:49:08.733Z,41.34
2023-06-17T11:51:37.372Z,41.20
2023-06-17T11:54:07.474Z,41.24
2023-06-17T11:56:34.370Z,41.14
2023-06-17T11:59:02.568Z,40.97
2023-06-17T12:01:29.481Z,40.81
2023-06-17T12:03:57.751Z,40.75
2023-06-17T12:06:25.317Z,40.63
2023-06-17T12:09:04.116Z,40.61
2023-06-17T12:11:32.989Z,40.63
2023-06-17T12:14:00.295Z,40.52
2023-06-17T12:16:32.296Z,40.40
2023-06-17T12:19:00.708Z,40.27
2023-06-17T12:21:27.707Z,40.15
2023-06-17T12:23:57.972Z,39.99
2023-06-17T12:26:25.326Z,39.92
2023-06-17T12:28:55.497Z,39.92
2023-06-17T12:31:23.367Z,40.09
2023-06-17T12:33:50.611Z,40.30
2023-06-17T12:36:18.113Z,40.57
2023-06-17T12:38:45.944Z,40.67
2023-06-17T12:41:13.033Z,40.56
2023-06-17T12:43:40.434Z,40.61
2023-06-17T12:46:08.382Z,40.78
2023-06-17T12:48:35.251Z,40.63
2023-06-17T12:51:02.913Z,40.40
2023-06-17T12:53:29.709Z,40.18
2023-06-17T12:55:56.878Z,40.15
2023-06-17T12:58:25.420Z,40.00
2023-06-17T13:00:53.294Z,39.93
2023-06-17T13:03:20.206Z,39.92
2023-06-17T13:05:51.537Z,40.10
2023-06-17T13:08:18.547Z,40.05
2023-06-17T13:10:45.358Z,39.98
2023-06-17T13:13:12.239Z,39.98
2023-06-17T13:15:39.903Z,40.05
2023-06-17T13:18:08.432Z,40.13
2023-06-17T13:20:35.486Z,40.36
2023-06-17T13:23:02.480Z,40.52
2023-06-17T13:25:29.246Z,40.65
2023-06-17T13:27:56.082Z,40.76
2023-06-17T13:30:23.202Z,40.82
2023-06-17T13:32:50.383Z,40.75
2023-06-17T13:35:17.533Z,40.59
2023-06-17T13:37:44.433Z,40.35
2023-06-17T13:40:11.799Z,40.28
2023-06-17T13:42:38.817Z,39.96
2023-06-17T13:45:06.277Z,39.78
2023-06-17T13:47:34.253Z,39.64
2023-06-17T13:50:01.444Z,39.56
2023-06-17T13:52:28.353Z,39.42
2023-06-17T13:54:55.194Z,39.13
2023-06-17T13:57:23.181Z,39.16
2023-06-17T13:59:50.784Z,39.10
2023-06-17T14:02:17.768Z,39.12
2023-06-17T14:04:45.034Z,39.11
2023-06-17T14:07:11.866Z,39.04
2023-06-17T14:09:38.995Z,38.79
2023-06-17T14:12:06.399Z,38.78
2023-06-17T14:14:33.257Z,38.68
2023-06-17T14:17:01.103Z,38.66
2023-06-17T14:19:29.257Z,38.73
2023-06-17T14:22:00.544Z,38.70
2023-06-17T14:24:29.261Z,38.70
2023-06-17T14:27:27.223Z,38.28
2023-06-17T14:29:54.033Z,38.11
2023-06-17T14:32:20.904Z,38.14
2023-06-17T14:34:48.002Z,38.35
2023-06-17T14:37:14.871Z,37.92
2023-06-17T14:39:41.657Z,37.93
2023-06-17T14:42:08.721Z,37.92
2023-06-17T14:44:35.576Z,37.70
2023-06-17T14:47:02.408Z,37.05
2023-06-17T14:49:29.303Z,36.66
2023-06-17T14:51:56.297Z,36.67
2023-06-17T14:54:23.648Z,36.45
2023-06-17T14:56:50.644Z,36.51
2023-06-17T14:59:17.626Z,36.57
2023-06-17T15:01:44.542Z,36.33
2023-06-17T15:04:13.456Z,36.42
2023-06-17T15:06:41.520Z,36.50
2023-06-17T15:09:26.083Z,36.28
2023-06-17T15:12:04.245Z,36.48
2023-06-17T15:14:34.799Z,36.00
2023-06-17T15:17:02.148Z,35.47
2023-06-17T15:19:28.975Z,35.09
2023-06-17T15:21:55.963Z,35.04
2023-06-17T15:24:22.862Z,34.18
2023-06-17T15:26:49.678Z,34.25
2023-06-17T15:29:16.906Z,34.41
2023-06-17T15:31:43.939Z,34.39
2023-06-17T15:34:11.490Z,34.48
2023-06-17T15:36:38.394Z,33.95
2023-06-17T15:39:19.147Z,33.98
2023-06-17T15:41:47.766Z,33.99
2023-06-17T15:44:15.921Z,33.93
2023-06-17T15:46:43.637Z,33.85
2023-06-17T15:49:11.028Z,33.59
2023-06-17T15:51:37.952Z,33.50
2023-06-17T15:54:05.338Z,33.29
2023-06-17T15:56:32.529Z,33.07
2023-06-17T15:59:00.934Z,33.03
2023-06-17T16:01:28.345Z,33.23
2023-06-17T16:03:57.602Z,33.13
2023-06-17T16:06:24.481Z,33.22
2023-06-17T16:08:52.476Z,33.21
2023-06-17T16:11:19.773Z,33.02
2023-06-17T16:13:46.628Z,33.13
2023-06-17T16:16:13.483Z,32.94
2023-06-17T16:18:40.374Z,32.64
2023-06-17T16:21:07.468Z,32.66
2023-06-17T16:23:34.295Z,32.62
2023-06-17T16:26:02.062Z,32.80
2023-06-17T16:28:28.920Z,33.02
2023-06-17T16:30:55.866Z,33.08
2023-06-17T16:33:22.706Z,32.98
2023-06-17T16:35:49.639Z,32.88
2023-06-17T16:38:16.424Z,32.85
2023-06-17T16:40:43.244Z,32.95
2023-06-17T16:43:09.997Z,33.20
2023-06-17T16:45:36.863Z,33.37
2023-06-17T16:48:03.859Z,33.46
2023-06-17T16:50:30.933Z,33.44
2023-06-17T16:52:57.734Z,33.59
2023-06-17T16:55:24.533Z,33.73
2023-06-17T16:57:51.507Z,33.77
2023-06-17T17:00:19.575Z,33.87
2023-06-17T17:02:46.669Z,33.86
2023-06-17T17:05:13.447Z,34.02
2023-06-17T17:07:40.275Z,34.10
2023-06-17T17:10:07.343Z,34.32
2023-06-17T17:12:34.158Z,34.65
2023-06-17T17:15:01.094Z,34.95
2023-06-17T17:17:28.029Z,35.31
2023-06-17T17:19:55.669Z,35.56
2023-06-17T17:22:22.516Z,35.81
2023-06-17T17:24:49.354Z,36.04
2023-06-17T17:27:16.349Z,36.26
2023-06-17T17:29:43.196Z,36.45
2023-06-17T17:32:10.050Z,36.67
2023-06-17T17:34:36.852Z,36.95
2023-06-17T17:37:03.895Z,37.20
2023-06-17T17:39:30.692Z,37.36
2023-06-17T17:41:57.514Z,37.62
2023-06-17T17:44:24.352Z,37.86
2023-06-17T17:46:51.450Z,38.09
2023-06-17T17:49:18.256Z,38.32
2023-06-17T17:51:45.074Z,38.43
2023-06-17T17:54:11.842Z,38.65
2023-06-17T17:56:38.631Z,38.79
2023-06-17T17:59:05.514Z,38.91
2023-06-17T18:01:32.298Z,39.10
2023-06-17T18:03:59.534Z,39.22
2023-06-17T18:06:26.930Z,38.94
2023-06-17T18:08:53.722Z,38.72
2023-06-17T18:11:20.524Z,38.66
2023-06-17T18:13:47.296Z,38.50
2023-06-17T18:16:14.263Z,38.30
2023-06-17T18:18:41.104Z,38.40
2023-06-17T18:21:07.901Z,38.48
2023-06-17T18:23:34.666Z,38.48
2023-06-17T18:26:01.523Z,38.64
2023-06-17T18:28:28.319Z,38.58
2023-06-17T18:30:55.167Z,38.76
2023-06-17T18:33:21.962Z,38.77
2023-06-17T18:35:48.855Z,38.96
2023-06-17T18:38:15.754Z,38.97
2023-06-17T18:40:42.645Z,39.25
2023-06-17T18:43:09.449Z,39.43
2023-06-17T18:45:36.312Z,39.67
2023-06-17T18:48:03.965Z,39.76
2023-06-17T18:50:31.209Z,39.94
2023-06-17T18:52:58.098Z,40.19
2023-06-17T18:55:24.861Z,40.36
2023-06-17T18:57:54.078Z,40.53
2023-06-17T19:00:21.351Z,40.62
2023-06-17T19:02:48.425Z,40.75
2023-06-17T19:05:15.263Z,40.73
2023-06-17T19:07:45.231Z,40.86
2023-06-17T19:10:12.446Z,41.01
2023-06-17T19:12:40.374Z,41.05
2023-06-17T19:15:10.130Z,41.21
2023-06-17T19:17:40.323Z,41.31
2023-06-17T19:20:08.681Z,41.36
2023-06-17T19:22:37.602Z,41.54
2023-06-17T19:25:06.145Z,41.65
2023-06-17T19:27:33.837Z,41.77
2023-06-17T19:30:02.568Z,41.94
2023-06-17T19:32:29.883Z,42.05
2023-06-17T19:34:59.041Z,42.14
2023-06-17T19:37:30.222Z,42.22
2023-06-17T19:39:57.066Z,42.37
2023-06-17T19:42:23.930Z,42.56
2023-06-17T19:44:57.277Z,42.69
2023-06-17T19:47:25.968Z,42.84
2023-06-17T19:49:53.785Z,43.01
2023-06-17T19:52:21.220Z,43.10
2023-06-17T19:54:48.623Z,43.20
2023-06-17T19:57:15.378Z,43.30
2023-06-17T19:59:42.529Z,43.34
2023-06-17T20:02:11.058Z,43.44
2023-06-17T20:04:37.848Z,43.53
2023-06-17T20:07:04.814Z,43.60
2023-06-17T20:09:31.695Z,43.76
2023-06-17T20:11:58.460Z,43.98
2023-06-17T20:14:25.245Z,44.10
2023-06-17T20:16:52.970Z,44.19
2023-06-17T20:19:19.803Z,44.24
2023-06-17T20:21:46.810Z,44.31
2023-06-17T20:24:13.710Z,44.29
2023-06-17T20:26:40.522Z,44.43
2023-06-17T20:29:07.341Z,44.43
2023-06-17T20:31:34.159Z,44.61
2023-06-17T20:34:01.004Z,44.66
2023-06-17T20:36:27.805Z,44.69
2023-06-17T20:38:54.584Z,44.71
2023-06-17T20:41:21.383Z,44.82
2023-06-17T20:43:48.415Z,44.89
2023-06-17T20:46:15.282Z,44.91
2023-06-17T20:48:42.111Z,45.00
2023-06-17T20:51:11.215Z,45.04
2023-06-17T20:53:38.324Z,45.13
2023-06-17T20:56:05.101Z,45.19
2023-06-17T20:58:31.941Z,45.28
2023-06-17T21:00:58.945Z,45.24
2023-06-17T21:03:25.887Z,45.33
2023-06-17T21:05:52.696Z,45.39
2023-06-17T21:08:19.490Z,45.35
2023-06-17T21:10:46.357Z,45.40
2023-06-17T21:13:13.135Z,45.39
2023-06-17T21:15:39.939Z,45.56
2023-06-17T21:18:07.080Z,45.50
2023-06-17T21:20:33.947Z,45.47
2023-06-17T21:23:00.983Z,45.55
2023-06-17T21:25:27.817Z,45.56
2023-06-17T21:27:54.569Z,45.57
2023-06-17T21:30:21.679Z,45.60
2023-06-17T21:32:48.878Z,45.61
2023-06-17T21:35:16.724Z,45.65
2023-06-17T21:37:43.548Z,45.80
2023-06-17T21:40:11.104Z,45.84
2023-06-17T21:42:38.056Z,45.96
2023-06-17T21:45:05.457Z,46.05
2023-06-17T21:47:32.246Z,46.11
2023-06-17T21:49:59.605Z,46.17
2023-06-17T21:52:26.393Z,46.26
2023-06-17T21:54:53.210Z,46.33
2023-06-17T21:57:20.996Z,46.36
2023-06-17T21:59:47.815Z,46.46
2023-06-17T22:02:14.877Z,46.53
2023-06-17T22:04:41.750Z,46.58
2023-06-17T22:07:08.568Z,46.66
2023-06-17T22:09:35.413Z,46.73
2023-06-17T22:12:02.238Z,46.91
2023-06-17T22:14:29.068Z,46.96
2023-06-17T22:16:56.171Z,46.88
2023-06-17T22:19:22.914Z,47.00
2023-06-17T22:21:49.808Z,47.08
2023-06-17T22:24:16.839Z,47.07
2023-06-17T22:26:43.824Z,47.25
2023-06-17T22:29:10.712Z,47.25
2023-06-17T22:31:37.497Z,47.39
2023-06-17T22:34:04.322Z,47.38
2023-06-17T22:36:31.169Z,47.42
2023-06-17T22:38:58.046Z,47.47
2023-06-17T22:41:24.867Z,47.52
2023-06-17T22:43:51.786Z,47.53
2023-06-17T22:46:18.805Z,47.59
2023-06-17T22:48:45.692Z,47.69
2023-06-17T22:51:12.479Z,47.68
2023-06-17T22:53:39.600Z,47.79
2023-06-17T22:56:06.582Z,47.77
2023-06-17T22:58:33.392Z,47.96
2023-06-17T23:01:00.225Z,48.10
2023-06-17T23:03:27.025Z,48.11
2023-06-17T23:05:53.818Z,48.17
2023-06-17T23:08:20.663Z,48.22
2023-06-17T23:10:47.664Z,48.31
2023-06-17T23:13:15.496Z,48.37
2023-06-17T23:15:42.364Z,48.49
2023-06-17T23:18:09.228Z,48.49
2023-06-17T23:20:36.111Z,48.57
2023-06-17T23:23:05.029Z,48.53
2023-06-17T23:25:32.448Z,48.69
2023-06-17T23:27:59.866Z,48.81
2023-06-17T23:30:26.624Z,48.85
2023-06-17T23:32:53.524Z,48.87
2023-06-17T23:35:20.679Z,49.01
2023-06-17T23:37:47.498Z,49.04
2023-06-17T23:40:14.369Z,48.95
2023-06-17T23:42:41.648Z,49.17
2023-06-17T23:45:09.226Z,49.02
2023-06-17T23:47:36.298Z,49.00
2023-06-17T23:50:03.280Z,49.15
2023-06-17T23:52:30.099Z,49.18
2023-06-17T23:54:56.856Z,49.21
2023-06-17T23:57:23.759Z,49.17
2023-06-17T23:59:50.657Z,49.34
